Impacts TAF Board
For situational awareness. Not to be used for flight planning purposes.
IDs:

KHBG - Hattiesburg/Chain Mu, MS, US

Issued at 1159 UTC 19 Aug 2019
Updated at 1457 UTC 19 Aug 2019
Potential Impact None Slight Moderate High
Time<<20/15Z 20/16Z 20/17Z 20/18Z 20/19Z 20/20Z 20/21Z 20/22Z 20/23Z 21/00Z 21/01Z 21/02Z 21/03Z
Type
VIS
CIG
Cover
FltCat
WX
WDir
WSpd
WGst
Raw TAF
KHBG 191159Z 1912/2012 00000KT P6SM FEW050
  FM191400 VRB03KT P6SM BKN015
  FM191700 VRB04KT P6SM -SHRA VCTS BKN050CB
  FM192200 VRB04KT P6SM SCT100


METAR Board
Radar Display
Forecast Discussion
For situational awareness. Not to be used for flight planning purposes.